Time;durP1;ratioP1;P1;durP2;ratioP2;P2;SDS_P1;SDS_P2;PMS_P1;PMS_P2;Temp;Humidity;BMP_temperature;BMP_pressure;BME280_temperature;BME280_humidity;BME280_pressure;Samples;Min_cycle;Max_cycle;Signal;HPM_P1;HPM_P2
2021/03/22 15:38:55;;;;;;;9.55;2.42;;;;;;;;;;5094223;28;20369;-68
2021/03/22 15:41:22;;;;;;;13.80;2.42;;;;;;;;;;5090179;28;20024;-74
2021/03/22 15:43:50;;;;;;;10.52;2.88;;;;;;;;;;5089491;28;20433;-71
2021/03/22 15:46:19;;;;;;;12.50;3.03;;;;;;;;;;5090617;28;20031;-67
2021/03/22 15:48:44;;;;;;;11.20;3.28;;;;;;;;;;5087703;28;20027;-63
2021/03/22 15:51:11;;;;;;;11.77;2.58;;;;;;;;;;5090368;28;20012;-63
2021/03/22 15:53:39;;;;;;;18.05;3.00;;;;;;;;;;5090249;28;20445;-64
2021/03/22 15:56:05;;;;;;;14.07;2.65;;;;;;;;;;5088945;28;20020;-67
2021/03/22 15:58:30;;;;;;;16.25;3.40;;;;;;;;;;5090786;28;20012;-68
2021/03/22 16:00:56;;;;;;;12.00;2.77;;;;;;;;;;5090765;28;20028;-66
2021/03/22 16:03:22;;;;;;;14.00;2.90;;;;;;;;;;5090746;28;20243;-66
2021/03/22 16:05:48;;;;;;;16.05;3.08;;;;;;;;;;5090409;28;20024;-67
2021/03/22 16:08:14;;;;;;;10.32;2.78;;;;;;;;;;5080173;28;20043;-66
2021/03/22 16:10:40;;;;;;;12.20;3.00;;;;;;;;;;5090596;28;20028;-66
2021/03/22 16:13:06;;;;;;;14.30;3.15;;;;;;;;;;5089754;28;20026;-66
2021/03/22 16:15:33;;;;;;;11.10;2.67;;;;;;;;;;5090851;28;20024;-66
2021/03/22 16:17:58;;;;;;;12.52;3.00;;;;;;;;;;5090569;28;20166;-66
2021/03/22 16:20:26;;;;;;;9.35;2.75;;;;;;;;;;5090615;28;20488;-64
2021/03/22 16:22:54;;;;;;;13.63;2.55;;;;;;;;;;5090598;28;20360;-69
2021/03/22 16:25:26;;;;;;;9.68;3.08;;;;;;;;;;5090466;28;20444;-64
2021/03/22 16:27:51;;;;;;;12.57;2.58;;;;;;;;;;5090566;28;20029;-64
2021/03/22 16:30:17;;;;;;;11.68;2.67;;;;;;;;;;5090204;28;20016;-65
2021/03/22 16:32:45;;;;;;;18.60;3.05;;;;;;;;;;5089953;28;20024;-64
2021/03/22 16:35:14;;;;;;;16.10;2.72;;;;;;;;;;5088824;28;20040;-63
2021/03/22 16:37:39;;;;;;;14.30;2.90;;;;;;;;;;5089832;28;20048;-64
2021/03/22 16:40:05;;;;;;;13.17;3.10;;;;;;;;;;5087966;28;20026;-64
2021/03/22 16:42:32;;;;;;;12.13;2.72;;;;;;;;;;5090067;28;20319;-62
2021/03/22 16:44:57;;;;;;;7.45;2.60;;;;;;;;;;5090249;28;20452;-64
2021/03/22 16:47:25;;;;;;;12.90;2.60;;;;;;;;;;5090032;28;20039;-64
2021/03/22 16:49:50;;;;;;;14.00;2.70;;;;;;;;;;5078094;28;20263;-65
2021/03/22 16:52:15;;;;;;;10.80;2.92;;;;;;;;;;5076656;28;20020;-64
2021/03/22 16:54:43;;;;;;;9.73;3.10;;;;;;;;;;5076492;28;20020;-65
2021/03/22 16:57:08;;;;;;;9.27;3.10;;;;;;;;;;5075376;28;20295;-64
2021/03/22 16:59:36;;;;;;;11.55;2.75;;;;;;;;;;5083642;28;20023;-64
2021/03/22 17:02:01;;;;;;;13.52;3.20;;;;;;;;;;5080590;28;20135;-64
2021/03/22 17:04:26;;;;;;;10.57;3.53;;;;;;;;;;5079025;28;20409;-63
2021/03/22 17:06:51;;;;;;;8.30;2.63;;;;;;;;;;5072575;28;20103;-64
2021/03/22 17:09:17;;;;;;;12.88;2.85;;;;;;;;;;5083434;28;20293;-64
2021/03/22 17:11:44;;;;;;;13.52;2.92;;;;;;;;;;5086677;28;20055;-64
2021/03/22 17:14:09;;;;;;;11.32;2.67;;;;;;;;;;5068724;28;20025;-64
2021/03/22 17:16:35;;;;;;;15.68;2.78;;;;;;;;;;5080618;28;20532;-64
2021/03/22 17:19:02;;;;;;;11.75;3.03;;;;;;;;;;5079024;28;20027;-65
2021/03/22 17:21:27;;;;;;;14.82;2.60;;;;;;;;;;5086107;28;20028;-66
2021/03/22 17:23:56;;;;;;;12.95;2.83;;;;;;;;;;5078947;28;20031;-65
2021/03/22 17:26:24;;;;;;;8.25;2.72;;;;;;;;;;5090945;28;20375;-65
2021/03/22 17:28:54;;;;;;;11.23;2.65;;;;;;;;;;5076641;28;20345;-64
2021/03/22 17:31:20;;;;;;;12.35;2.42;;;;;;;;;;5080305;28;20406;-65
2021/03/22 17:33:48;;;;;;;9.98;2.28;;;;;;;;;;5085654;28;20020;-66
2021/03/22 17:36:13;;;;;;;11.65;2.67;;;;;;;;;;5081421;28;20078;-66
2021/03/22 17:38:42;;;;;;;8.15;2.10;;;;;;;;;;5076853;28;20425;-65
2021/03/22 17:41:08;;;;;;;10.82;2.80;;;;;;;;;;5074875;28;20405;-65
2021/03/22 17:43:35;;;;;;;9.40;2.78;;;;;;;;;;5079052;28;20213;-66
2021/03/22 17:46:01;;;;;;;11.73;2.33;;;;;;;;;;5076466;28;20031;-66
2021/03/22 17:48:26;;;;;;;10.02;2.30;;;;;;;;;;5083839;28;20020;-65
2021/03/22 17:50:52;;;;;;;9.82;2.58;;;;;;;;;;5080123;28;20497;-66
2021/03/22 17:53:17;;;;;;;8.88;2.40;;;;;;;;;;5088382;28;20351;-65
2021/03/22 17:55:43;;;;;;;9.77;2.20;;;;;;;;;;5075788;28;20028;-65
2021/03/22 17:58:08;;;;;;;8.35;2.35;;;;;;;;;;5075127;28;20030;-65
2021/03/22 18:00:34;;;;;;;13.60;2.55;;;;;;;;;;5074256;28;20431;-65
2021/03/22 18:03:00;;;;;;;14.05;2.67;;;;;;;;;;5074990;28;20016;-66
2021/03/22 18:05:27;;;;;;;11.60;2.35;;;;;;;;;;5075016;28;20108;-66
2021/03/22 18:07:54;;;;;;;6.55;2.10;;;;;;;;;;5070119;28;20048;-66
2021/03/22 18:10:21;;;;;;;9.43;2.72;;;;;;;;;;5068160;28;20032;-66
2021/03/22 18:12:49;;;;;;;12.30;2.78;;;;;;;;;;5061780;28;20086;-65
2021/03/22 18:15:17;;;;;;;11.02;2.42;;;;;;;;;;5074565;28;20024;-68
2021/03/22 18:17:45;;;;;;;10.75;2.75;;;;;;;;;;5074454;28;20016;-68
2021/03/22 18:20:10;;;;;;;10.73;2.47;;;;;;;;;;5074359;28;20070;-68
2021/03/22 18:22:37;;;;;;;8.07;2.20;;;;;;;;;;5074169;28;20036;-67
2021/03/22 18:25:02;;;;;;;10.80;2.38;;;;;;;;;;5074418;28;20432;-67
2021/03/22 18:27:28;;;;;;;6.57;2.17;;;;;;;;;;5074413;28;20032;-66
2021/03/22 18:29:55;;;;;;;8.05;2.25;;;;;;;;;;5071531;28;20491;-69
2021/03/22 18:32:24;;;;;;;11.63;2.45;;;;;;;;;;5074579;28;20013;-73
2021/03/22 18:34:50;;;;;;;9.77;2.40;;;;;;;;;;5074549;28;20029;-70
2021/03/22 18:37:16;;;;;;;10.40;2.50;;;;;;;;;;5073350;28;20063;-74
2021/03/22 18:39:43;;;;;;;8.73;2.60;;;;;;;;;;5074566;28;20092;-75
2021/03/22 18:42:09;;;;;;;10.68;2.22;;;;;;;;;;5074355;28;20448;-77
2021/03/22 18:44:37;;;;;;;9.00;2.40;;;;;;;;;;5074368;28;20021;-70
2021/03/22 18:47:02;;;;;;;7.93;2.20;;;;;;;;;;5074291;28;20444;-72
2021/03/22 18:49:27;;;;;;;7.10;2.13;;;;;;;;;;5074720;28;20035;-73
2021/03/22 18:51:53;;;;;;;7.30;2.15;;;;;;;;;;5074452;28;20032;-70
2021/03/22 18:54:18;;;;;;;7.95;2.42;;;;;;;;;;5074433;28;20027;-75
2021/03/22 18:56:43;;;;;;;8.50;2.13;;;;;;;;;;5074226;28;20399;-74
2021/03/22 18:59:09;;;;;;;5.18;1.90;;;;;;;;;;5073351;28;20017;-68
2021/03/22 19:01:41;;;;;;;5.70;2.10;;;;;;;;;;5074261;28;20077;-68
2021/03/22 19:04:08;;;;;;;4.65;2.00;;;;;;;;;;5073171;28;20075;-68
2021/03/22 19:06:33;;;;;;;7.25;2.03;;;;;;;;;;5074006;28;20120;-68
2021/03/22 19:08:59;;;;;;;5.37;1.97;;;;;;;;;;5074180;28;20480;-68
2021/03/22 19:11:26;;;;;;;6.07;1.80;;;;;;;;;;5073630;28;20341;-68
2021/03/22 19:13:51;;;;;;;6.97;1.92;;;;;;;;;;5073955;28;20451;-69
2021/03/22 19:16:19;;;;;;;6.63;1.98;;;;;;;;;;5074101;28;20025;-68
2021/03/22 19:18:47;;;;;;;10.90;2.40;;;;;;;;;;5073915;28;20448;-69
2021/03/22 19:21:15;;;;;;;5.55;2.10;;;;;;;;;;5073811;28;20024;-68
2021/03/22 19:23:43;;;;;;;5.97;2.10;;;;;;;;;;5074265;28;20385;-69
2021/03/22 19:26:10;;;;;;;5.05;1.75;;;;;;;;;;5074140;28;20074;-70
2021/03/22 19:28:36;;;;;;;7.45;2.10;;;;;;;;;;5072881;28;20024;-70
2021/03/22 19:31:04;;;;;;;8.57;2.25;;;;;;;;;;5072887;28;20338;-69
2021/03/22 19:33:29;;;;;;;5.03;2.30;;;;;;;;;;5073900;28;20054;-71
2021/03/22 19:35:55;;;;;;;4.35;1.77;;;;;;;;;;5073075;28;20017;-69
2021/03/22 19:38:21;;;;;;;6.03;2.00;;;;;;;;;;5073096;28;20042;-71
2021/03/22 19:40:50;;;;;;;7.53;2.38;;;;;;;;;;5073532;28;20149;-71
2021/03/22 19:43:16;;;;;;;9.18;2.08;;;;;;;;;;5073658;28;20016;-68
2021/03/22 19:45:41;;;;;;;5.03;2.00;;;;;;;;;;5072680;28;20107;-67
2021/03/22 19:48:07;;;;;;;5.80;2.10;;;;;;;;;;5073572;28;20139;-68
2021/03/22 19:50:33;;;;;;;5.85;1.85;;;;;;;;;;5073376;28;20020;-68
2021/03/22 19:53:00;;;;;;;8.50;2.00;;;;;;;;;;5073213;28;20024;-68
2021/03/22 19:55:27;;;;;;;9.35;2.13;;;;;;;;;;5073529;28;20464;-69
2021/03/22 19:57:52;;;;;;;7.35;2.22;;;;;;;;;;5073430;28;20028;-70
2021/03/22 20:00:19;;;;;;;8.18;2.28;;;;;;;;;;5073474;28;20341;-70
2021/03/22 20:02:44;;;;;;;11.98;2.35;;;;;;;;;;5072437;28;20024;-70
2021/03/22 20:05:10;;;;;;;4.82;2.13;;;;;;;;;;5072430;28;20017;-70
2021/03/22 20:07:35;;;;;;;5.80;2.10;;;;;;;;;;5073225;28;20036;-70
2021/03/22 20:10:01;;;;;;;4.07;1.80;;;;;;;;;;5073329;28;20031;-69
2021/03/22 20:12:28;;;;;;;5.57;2.03;;;;;;;;;;5073387;28;20020;-70
2021/03/22 20:14:56;;;;;;;6.72;2.05;;;;;;;;;;5072283;28;20024;-70
2021/03/22 20:17:21;;;;;;;5.00;1.80;;;;;;;;;;5073277;28;20070;-70
2021/03/22 20:19:46;;;;;;;8.53;2.10;;;;;;;;;;5073229;28;20037;-70
2021/03/22 20:22:12;;;;;;;5.47;1.67;;;;;;;;;;5072174;28;20259;-71
2021/03/22 20:24:38;;;;;;;3.97;1.80;;;;;;;;;;5075105;28;20059;-70
2021/03/22 20:27:04;;;;;;;7.88;2.17;;;;;;;;;;5073796;28;20017;-70
2021/03/22 20:29:31;;;;;;;3.92;2.05;;;;;;;;;;5066885;28;20449;-71
2021/03/22 20:31:56;;;;;;;6.30;2.05;;;;;;;;;;5056956;28;20096;-72
2021/03/22 20:34:25;;;;;;;4.47;1.90;;;;;;;;;;5065497;28;20108;-72
2021/03/22 20:36:50;;;;;;;3.15;1.85;;;;;;;;;;5075688;28;20449;-71
2021/03/22 20:39:16;;;;;;;11.57;1.95;;;;;;;;;;5076439;28;20020;-70
2021/03/22 20:41:42;;;;;;;6.32;1.70;;;;;;;;;;5076150;28;20472;-68
2021/03/22 20:44:10;;;;;;;7.07;1.50;;;;;;;;;;5076526;28;20077;-68
2021/03/22 20:46:36;;;;;;;6.95;3.10;;;;;;;;;;5075252;28;20494;-69
2021/03/22 20:49:05;;;;;;;8.75;4.22;;;;;;;;;;5075612;28;20028;-71
2021/03/22 20:51:30;;;;;;;10.90;3.85;;;;;;;;;;5076140;28;20024;-74
2021/03/22 20:53:55;;;;;;;7.37;3.50;;;;;;;;;;5075073;28;20027;-74
2021/03/22 20:56:20;;;;;;;8.20;3.33;;;;;;;;;;5075358;28;20255;-73
2021/03/22 20:58:45;;;;;;;7.75;2.97;;;;;;;;;;5075339;28;20666;-73
2021/03/22 21:01:16;;;;;;;7.78;3.00;;;;;;;;;;5076284;28;20056;-73
2021/03/22 21:03:41;;;;;;;8.45;3.20;;;;;;;;;;5076307;28;20074;-73
2021/03/22 21:06:07;;;;;;;5.70;2.60;;;;;;;;;;5076404;28;20024;-73
2021/03/22 21:08:32;;;;;;;8.27;2.75;;;;;;;;;;5076294;28;20285;-73
2021/03/22 21:10:57;;;;;;;4.50;2.20;;;;;;;;;;5076306;28;20043;-72
2021/03/22 21:13:27;;;;;;;6.30;2.17;;;;;;;;;;5076209;28;20247;-73
2021/03/22 21:15:55;;;;;;;5.80;2.28;;;;;;;;;;5076326;28;20251;-72
2021/03/22 21:18:21;;;;;;;3.38;2.10;;;;;;;;;;5076017;28;20032;-72
2021/03/22 21:20:51;;;;;;;3.92;2.30;;;;;;;;;;5076034;28;20013;-72
2021/03/22 21:23:17;;;;;;;6.18;2.08;;;;;;;;;;5075070;28;20012;-73
2021/03/22 21:25:42;;;;;;;5.32;2.22;;;;;;;;;;5075986;28;20087;-72
2021/03/22 21:28:10;;;;;;;4.63;1.92;;;;;;;;;;5075990;28;20116;-72
2021/03/22 21:30:36;;;;;;;5.57;1.80;;;;;;;;;;5076017;28;20024;-72
2021/03/22 21:33:03;;;;;;;3.88;1.92;;;;;;;;;;5075854;28;20017;-71
2021/03/22 21:35:30;;;;;;;5.00;2.20;;;;;;;;;;5075748;28;20021;-71
2021/03/22 21:37:55;;;;;;;2.72;1.80;;;;;;;;;;5075464;28;20128;-72
2021/03/22 21:40:24;;;;;;;4.45;2.00;;;;;;;;;;5075716;28;20166;-72
2021/03/22 21:42:50;;;;;;;3.97;1.90;;;;;;;;;;5075786;28;20100;-71
2021/03/22 21:45:17;;;;;;;4.38;1.90;;;;;;;;;;5075730;28;20539;-72
2021/03/22 21:47:42;;;;;;;4.53;2.20;;;;;;;;;;5075529;28;20032;-72
2021/03/22 21:50:08;;;;;;;3.08;1.88;;;;;;;;;;5075541;28;20025;-72
2021/03/22 21:52:36;;;;;;;3.08;1.73;;;;;;;;;;5075483;28;20016;-73
2021/03/22 21:55:04;;;;;;;3.10;1.80;;;;;;;;;;5075453;28;20025;-74
2021/03/22 21:57:29;;;;;;;5.57;1.85;;;;;;;;;;5075882;28;20028;-75
2021/03/22 21:59:55;;;;;;;4.03;1.63;;;;;;;;;;5075355;28;20429;-74
2021/03/22 22:02:20;;;;;;;3.73;1.97;;;;;;;;;;5075297;28;20017;-76
2021/03/22 22:04:45;;;;;;;3.22;1.75;;;;;;;;;;5075173;28;20330;-71
2021/03/22 22:07:11;;;;;;;2.70;1.65;;;;;;;;;;5074216;28;20044;-72
2021/03/22 22:09:37;;;;;;;5.00;1.80;;;;;;;;;;5074763;28;20063;-71
2021/03/22 22:12:02;;;;;;;2.90;1.73;;;;;;;;;;5075034;28;20270;-70
2021/03/22 22:14:27;;;;;;;3.00;1.83;;;;;;;;;;5075022;28;20035;-70
2021/03/22 22:16:52;;;;;;;3.22;1.88;;;;;;;;;;5074913;28;20381;-72
2021/03/22 22:19:18;;;;;;;4.40;1.67;;;;;;;;;;5074955;28;20020;-71
2021/03/22 22:21:43;;;;;;;2.90;1.60;;;;;;;;;;5074871;28;20715;-71
2021/03/22 22:24:11;;;;;;;3.58;1.92;;;;;;;;;;5073842;28;20270;-71
2021/03/22 22:26:36;;;;;;;2.90;1.70;;;;;;;;;;5074886;28;20008;-72
2021/03/22 22:29:01;;;;;;;3.67;1.97;;;;;;;;;;5074744;28;20028;-71
2021/03/22 22:31:28;;;;;;;2.67;1.50;;;;;;;;;;5074921;28;20308;-70
2021/03/22 22:33:54;;;;;;;6.70;1.80;;;;;;;;;;5074732;28;20322;-71
2021/03/22 22:36:21;;;;;;;4.53;1.97;;;;;;;;;;5073635;28;20039;-70
2021/03/22 22:38:46;;;;;;;2.80;1.70;;;;;;;;;;5074249;28;20840;-70
2021/03/22 22:41:12;;;;;;;4.93;1.67;;;;;;;;;;5074562;28;20015;-70
2021/03/22 22:43:37;;;;;;;2.47;1.48;;;;;;;;;;5074460;28;20334;-71
2021/03/22 22:46:02;;;;;;;4.13;1.70;;;;;;;;;;5074315;28;20354;-70
2021/03/22 22:48:28;;;;;;;3.35;1.70;;;;;;;;;;5073932;28;20690;-71
2021/03/22 22:50:55;;;;;;;2.17;1.60;;;;;;;;;;5074402;28;20023;-70
2021/03/22 22:53:21;;;;;;;3.35;1.63;;;;;;;;;;5073235;28;20346;-70
2021/03/22 22:55:48;;;;;;;2.47;1.60;;;;;;;;;;5074306;28;20100;-70
2021/03/22 22:58:14;;;;;;;3.47;1.73;;;;;;;;;;5074085;28;20781;-70
2021/03/22 23:00:41;;;;;;;6.03;1.85;;;;;;;;;;5074169;28;20067;-70
2021/03/22 23:03:09;;;;;;;2.90;1.50;;;;;;;;;;5073946;28;20441;-70
2021/03/22 23:05:36;;;;;;;3.55;1.63;;;;;;;;;;5074042;28;20035;-70
2021/03/22 23:08:08;;;;;;;2.40;1.55;;;;;;;;;;5074153;28;20016;-70
2021/03/22 23:10:34;;;;;;;3.08;1.52;;;;;;;;;;5074104;28;20020;-70
2021/03/22 23:12:59;;;;;;;4.80;1.75;;;;;;;;;;5074010;28;20032;-71
2021/03/22 23:15:30;;;;;;;2.78;1.48;;;;;;;;;;5073998;28;20027;-71
2021/03/22 23:17:57;;;;;;;2.30;1.40;;;;;;;;;;5072942;28;20039;-70
2021/03/22 23:20:22;;;;;;;2.80;1.70;;;;;;;;;;5073963;28;20008;-72
2021/03/22 23:22:53;;;;;;;1.73;1.50;;;;;;;;;;5073914;28;20501;-73
2021/03/22 23:25:18;;;;;;;3.40;1.70;;;;;;;;;;5072965;28;20024;-73
2021/03/22 23:27:44;;;;;;;2.75;1.58;;;;;;;;;;5073854;28;20077;-72
2021/03/22 23:30:17;;;;;;;2.63;1.50;;;;;;;;;;5073798;28;20017;-71
2021/03/22 23:32:42;;;;;;;3.30;1.50;;;;;;;;;;5073878;28;20330;-71
2021/03/22 23:35:10;;;;;;;2.40;1.55;;;;;;;;;;5073822;28;20035;-73
2021/03/22 23:37:38;;;;;;;2.03;1.40;;;;;;;;;;5073534;28;20044;-73
2021/03/22 23:40:06;;;;;;;2.50;1.35;;;;;;;;;;5073859;28;20437;-73
2021/03/22 23:42:34;;;;;;;3.28;1.58;;;;;;;;;;5073675;28;20016;-72
2021/03/22 23:44:59;;;;;;;3.25;1.40;;;;;;;;;;5073622;28;20016;-72
2021/03/22 23:47:24;;;;;;;1.63;1.30;;;;;;;;;;5073652;28;20016;-71
2021/03/22 23:49:50;;;;;;;1.63;1.10;;;;;;;;;;5073694;28;20259;-71
2021/03/22 23:52:15;;;;;;;1.80;1.40;;;;;;;;;;5073321;28;20029;-73
2021/03/22 23:54:40;;;;;;;2.23;1.33;;;;;;;;;;5053514;28;20259;-73
2021/03/22 23:57:06;;;;;;;2.37;1.60;;;;;;;;;;5053502;28;20283;-75
2021/03/22 23:59:31;;;;;;;2.05;1.50;;;;;;;;;;5071013;28;20252;-75
